Terminal Aerodrome Forecast
Issued by NWS

Home | Current Version | Previous Version | Text Only | Print | Product List | Glossary On
Versions: 1 2 3 4 5 6 7 8 9 10 11 12 13 14 15 16 17 18 19 20 21 22 23 24 25 26 27 28
834
FTUS43 KGLD 120524
TAFMCK
TAF
KMCK 120524Z 1206/1306 32011KT P6SM BKN250
     FM121100 34005KT P6SM BKN015
     FM121300 34005KT 3SM BR BKN007
     FM121400 36005KT 1SM BR OVC003
     FM121700 05005KT P6SM SCT007 OVC020
     FM130000 07005KT 5SM BR OVC007
     FM130300 12008KT 2SM -FZDZ BR OVC004=

USA.gov is the U.S. government's official web portal to all federal, state and local government web resources and services.